Thunder radar more information blitzortung!


Radar de pluja more information rain snow radar


Visita la nostra xarxa de llocs de meteo:

Template documentation
and downloads

And another site



No particular awareness of the weather is required.    There are no Weather-warnings

Pagina Historial Weather Underground text

Diari Resum Juny 15, 2016 Unitats:  Mètric    Imperial   Tant
« Previous Dia
SegĂźent Dia »
Diari Setmana Mensual Anual Personalitzada
  Maxima: Minima: Media:
Temperatura: -17.8 °C -9.3 °C -5.9 °C
Punt de rosada: -17.8 °C -12.7 °C -10.2 °C
Humitat: Humidity % 53 % 61 %
Wind Speed: 0 km/h 0 km/h 13.2 km/h
RĂ fegues de vent: 0 km/h - -
Vent:- - East
Pression baro: 0 hPa 33788.9 hPa -
Precipitacions: 0 mm    
Historical Graphs
 
 
Dades de taula per Juny 15, 2016
Temps Temperatura Punt de rosada Pression baro Vent Wind Speed RĂ fegues de vent Humitat Rainfall Rate (Hourly)
-17.8 °C -17.8 °C 0 hPa Calm     Humidity % 0 mm
00:02 -6.3 °C -11.3 °C 33992.1 hPa ESE 20.9 km/h 20.9 km/h 56 % 0 mm
00:05 -7.7 °C -10.3 °C 33924.3 hPa Calm   5.1 km/h 74 % 0 mm
00:15 -7.8 °C -10.4 °C 33924.3 hPa Calm   5.1 km/h 74 % 0 mm
00:25 -7.8 °C -10.4 °C 33924.3 hPa Calm   5.1 km/h 74 % 0 mm
00:35 -7.9 °C -10.4 °C 33924.3 hPa Calm   5.1 km/h 75 % 0 mm
00:55 -7.9 °C -10.4 °C 33924.3 hPa Calm   5.1 km/h 75 % 0 mm
01:05 -8.1 °C -10.6 °C 33924.3 hPa Calm   5.1 km/h 75 % 0 mm
01:15 -8.1 °C -10.6 °C 33924.3 hPa Calm   5.1 km/h 75 % 0 mm
01:25 -8.2 °C -10.6 °C 33924.3 hPa Calm   5.1 km/h 76 % 0 mm
01:35 -8.2 °C -10.6 °C 33924.3 hPa Calm   5.1 km/h 76 % 0 mm
01:45 -8.2 °C -10.6 °C 33924.3 hPa Calm   5.1 km/h 76 % 0 mm
01:55 -8.1 °C -10.6 °C 33924.3 hPa Calm   5.1 km/h 75 % 0 mm
02:05 -8 °C -10.5 °C 33924.3 hPa Calm   5.1 km/h 75 % 0 mm
02:15 -7.9 °C -10.5 °C 33924.3 hPa Calm   5.1 km/h 74 % 0 mm
02:25 -7.7 °C -10.4 °C 33924.3 hPa Calm   5.1 km/h 73 % 0 mm
02:35 -7.6 °C -10.4 °C 33924.3 hPa Calm   5.1 km/h 72 % 0 mm
02:45 -7.4 °C -10.3 °C 33924.3 hPa Calm   5.1 km/h 72 % 0 mm
02:55 -7.3 °C -10.3 °C 33924.3 hPa Calm   5.1 km/h 71 % 0 mm
03:15 -7 °C -10.2 °C 33958.2 hPa Calm   5.1 km/h 69 % 0 mm
03:25 -6.8 °C -10.1 °C 33958.2 hPa Calm   5.1 km/h 69 % 0 mm
03:35 -6.8 °C -10.1 °C 33958.2 hPa ESE 7.7 km/h 18.2 km/h 69 % 0 mm
03:45 -6.7 °C -10.1 °C 33958.2 hPa SE 7.7 km/h 7.7 km/h 68 % 0 mm
03:55 -6.4 °C -9.9 °C 33958.2 hPa ESE 2.6 km/h 7.7 km/h 67 % 0 mm
04:05 -6.3 °C -9.8 °C 33924.3 hPa ENE 12.9 km/h 12.9 km/h 67 % 0 mm
04:15 -6.1 °C -9.8 °C 33924.3 hPa ENE 12.9 km/h 15.6 km/h 66 % 0 mm
04:25 -6 °C -9.7 °C 33924.3 hPa ENE 7.7 km/h 15.6 km/h 66 % 0 mm
04:35 -5.9 °C -9.6 °C 33924.3 hPa NE 7.7 km/h 12.9 km/h 66 % 0 mm
04:45 -5.7 °C -9.5 °C 33924.3 hPa ENE 15.6 km/h 15.6 km/h 65 % 0 mm
04:55 -5.5 °C -9.5 °C 33924.3 hPa East 15.6 km/h 18.2 km/h 64 % 0 mm
10:06 -5.4 °C -9.4 °C 33924.3 hPa ESE 15 km/h 15 km/h 64 % 0 mm
10:11 -5.3 °C -9.3 °C 33924.3 hPa East 12.2 km/h 14 km/h 64 % 0 mm
10:16 -5.4 °C -9.5 °C 33924.3 hPa ESE 15 km/h 15 km/h 63 % 0 mm
10:21 -5.2 °C -9.5 °C 33924.3 hPa ESE 11.9 km/h 11.9 km/h 62 % 0 mm
10:26 -4.9 °C -9.2 °C 33924.3 hPa ENE 9 km/h 9 km/h 62 % 0 mm
10:31 -4.7 °C -9.1 °C 33924.3 hPa East 11.9 km/h 11.9 km/h 61 % 0 mm
10:36 -4.6 °C -9.2 °C 33924.3 hPa NNE 15.3 km/h 15.3 km/h 60 % 0 mm
10:41 -4.7 °C -9.2 °C 33924.3 hPa East 14 km/h 14 km/h 60 % 0 mm
10:51 -4.3 °C -9.2 °C 33924.3 hPa ESE 6.8 km/h 6.8 km/h 58 % 0 mm
10:56 -4.1 °C -9.3 °C 33924.3 hPa ESE 25.9 km/h 25.9 km/h 56 % 0 mm
11:01 -4.2 °C -9.6 °C 33924.3 hPa SW 15 km/h 15 km/h 55 % 0 mm
11:06 -4.2 °C -9.7 °C 33924.3 hPa ENE 15 km/h 15 km/h 54 % 0 mm
11:11 -4.1 °C -9.7 °C 33924.3 hPa East 14.5 km/h 14.5 km/h 53 % 0 mm
11:16 -4.2 °C -9.8 °C 33890.5 hPa ESE 20.3 km/h 20.3 km/h 53 % 0 mm
11:21 -4.3 °C -9.8 °C 33890.5 hPa East 14.5 km/h 14.5 km/h 54 % 0 mm
11:26 -4.3 °C -9.8 °C 33890.5 hPa ESE 20.3 km/h 20.3 km/h 54 % 0 mm
11:31 -4.4 °C -9.9 °C 33924.3 hPa East 11.9 km/h 11.9 km/h 54 % 0 mm
11:36 -4.6 °C -9.7 °C 33924.3 hPa NNE 15 km/h 15 km/h 56 % 0 mm
11:41 -4.5 °C -9.7 °C 33924.3 hPa ESE 23.8 km/h 23.8 km/h 56 % 0 mm
11:46 -4.4 °C -9.8 °C 33924.3 hPa East 50.7 km/h 50.7 km/h 55 % 0 mm
11:51 -4.8 °C -9.8 °C 33924.3 hPa ESE 26.9 km/h 26.9 km/h 57 % 0 mm
11:56 -4.7 °C -9.7 °C 33924.3 hPa East 17.9 km/h 17.9 km/h 57 % 0 mm
12:01 -4.5 °C -9.5 °C 33924.3 hPa East 15 km/h 15 km/h 57 % 0 mm
12:06 -4.3 °C -9.5 °C 33924.3 hPa SSE 15 km/h 15 km/h 56 % 0 mm
12:11 -4.2 °C -9.5 °C 33924.3 hPa SE 20.3 km/h 20.3 km/h 55 % 0 mm
12:16 -4.1 °C -9.5 °C 33890.5 hPa South 9 km/h 9.8 km/h 55 % 0 mm
12:21 -4.1 °C -9.6 °C 33890.5 hPa SSW 20.9 km/h 20.9 km/h 54 % 0 mm
12:26 -3.9 °C -9.5 °C 33890.5 hPa SW 23.8 km/h 23.8 km/h 54 % 0 mm
12:31 -4.1 °C -9.6 °C 33890.5 hPa East 15 km/h 15 km/h 54 % 0 mm
12:36 -4.2 °C -9.7 °C 33890.5 hPa ESE 26.9 km/h 26.9 km/h 54 % 0 mm
12:41 -4.3 °C -9.6 °C 33890.5 hPa ESE 22 km/h 22 km/h 55 % 0 mm
12:46 -4.4 °C -9.8 °C 33890.5 hPa ESE 26.9 km/h 26.9 km/h 55 % 0 mm
12:51 -4.6 °C -9.6 °C 33890.5 hPa ESE 26.9 km/h 26.9 km/h 57 % 0 mm
12:56 -4.7 °C -9.7 °C 33890.5 hPa East 23.8 km/h 23.8 km/h 57 % 0 mm
13:01 -4.7 °C -9.7 °C 33890.5 hPa ESE 24.3 km/h 24.3 km/h 57 % 0 mm
13:06 -4.6 °C -9.5 °C 33890.5 hPa East 20.9 km/h 20.9 km/h 58 % 0 mm
13:11 -4.7 °C -9.7 °C 33890.5 hPa South 26.9 km/h 26.9 km/h 57 % 0 mm
13:16 -4.6 °C -9.6 °C 33856.6 hPa ESE 23.8 km/h 23.8 km/h 57 % 0 mm
13:21 -4.6 °C -9.5 °C 33856.6 hPa ESE 23.8 km/h 23.8 km/h 58 % 0 mm
13:26 -4.6 °C -9.6 °C 33856.6 hPa East 26.9 km/h 26.9 km/h 57 % 0 mm
13:31 -4.4 °C -9.5 °C 33856.6 hPa NE 26.9 km/h 26.9 km/h 57 % 0 mm
13:36 -4.5 °C -9.4 °C 33856.6 hPa ESE 15 km/h 15 km/h 58 % 0 mm
13:41 -4.6 °C -9.6 °C 33856.6 hPa ENE 26.9 km/h 26.9 km/h 57 % 0 mm
13:46 -4.8 °C -9.5 °C 33856.6 hPa ESE 29.8 km/h 29.8 km/h 59 % 0 mm
13:51 -4.8 °C -9.5 °C 33856.6 hPa ESE 26.9 km/h 26.9 km/h 59 % 0 mm
13:56 -4.9 °C -9.4 °C 33856.6 hPa ESE 35.7 km/h 35.7 km/h 60 % 0 mm
14:01 -4.9 °C -9.4 °C 33856.6 hPa South 32.8 km/h 32.8 km/h 60 % 0 mm
14:06 -4.8 °C -9.4 °C 33856.6 hPa East 11.9 km/h 11.9 km/h 60 % 0 mm
14:11 -4.7 °C -9.4 °C 33856.6 hPa ESE 17.9 km/h 17.9 km/h 59 % 0 mm
14:16 -4.8 °C -9.5 °C 33856.6 hPa NNE 15 km/h 15 km/h 59 % 0 mm
14:21 -4.4 °C -9.3 °C 33856.6 hPa West 11.9 km/h 11.9 km/h 58 % 0 mm
14:26 -4.5 °C -9.2 °C 33856.6 hPa NE 15 km/h 15 km/h 59 % 0 mm
14:31 -4.4 °C -9.3 °C 33856.6 hPa WNW 11.9 km/h 11.9 km/h 58 % 0 mm
14:36 -4.5 °C -9.2 °C 33856.6 hPa ENE 20.9 km/h 20.9 km/h 59 % 0 mm
14:41 -4.5 °C -9.4 °C 33856.6 hPa East 15 km/h 15 km/h 58 % 0 mm
14:46 -4.4 °C -9.5 °C 33856.6 hPa WSW 9 km/h 9 km/h 57 % 0 mm
14:51 -4.3 °C -9.3 °C 33856.6 hPa SSW 6 km/h 6 km/h 57 % 0 mm
15:01 -4.4 °C -9.3 °C 33856.6 hPa ENE 11.9 km/h 11.9 km/h 58 % 0 mm
15:06 -4.6 °C -9.3 °C 33856.6 hPa ENE 15 km/h 15 km/h 59 % 0 mm
15:11 -4.6 °C -9.3 °C 33856.6 hPa NNE 12.2 km/h 12.2 km/h 59 % 0 mm
15:16 -4.6 °C -9.3 °C 33856.6 hPa NE 6 km/h 6 km/h 59 % 0 mm
15:21 -4.5 °C -9.4 °C 33856.6 hPa NNE 15.3 km/h 15.3 km/h 58 % 0 mm
15:26 -4.4 °C -9.5 °C 33856.6 hPa NE 17.9 km/h 18.3 km/h 57 % 0 mm
15:31 -4.3 °C -9.3 °C 33822.8 hPa ENE 17.9 km/h 17.9 km/h 57 % 0 mm
15:36 -4.4 °C -9.5 °C 33822.8 hPa ENE 17.9 km/h 17.9 km/h 57 % 0 mm
15:41 -4.4 °C -9.5 °C 33822.8 hPa NE 20.9 km/h 20.9 km/h 57 % 0 mm
15:46 -4.5 °C -9.5 °C 33856.6 hPa East 20.9 km/h 20.9 km/h 57 % 0 mm
15:51 -4.2 °C -9.4 °C 33856.6 hPa ESE 20.9 km/h 20.9 km/h 56 % 0 mm
15:56 -4.1 °C -9.3 °C 33856.6 hPa NE 25.4 km/h 25.4 km/h 56 % 0 mm
16:01 -4 °C -9.3 °C 33856.6 hPa ENE 26.9 km/h 26.9 km/h 55 % 0 mm
16:06 -4.1 °C -9.5 °C 33856.6 hPa NNE 17.9 km/h 17.9 km/h 55 % 0 mm
16:11 -4 °C -9.3 °C 33856.6 hPa East 26.9 km/h 26.9 km/h 55 % 0 mm
16:16 -4.1 °C -9.4 °C 33822.8 hPa East 20.9 km/h 20.9 km/h 55 % 0 mm
16:21 -4.1 °C -9.6 °C 33822.8 hPa ESE 23.8 km/h 23.8 km/h 54 % 0 mm
16:26 -4.1 °C -9.6 °C 33822.8 hPa SE 16.1 km/h 16.1 km/h 54 % 0 mm
16:36 -4.1 °C -9.6 °C 33822.8 hPa ESE 23.8 km/h 23.8 km/h 54 % 0 mm
16:41 -4.2 °C -9.7 °C 33822.8 hPa East 26.9 km/h 26.9 km/h 54 % 0 mm
16:46 -4.6 °C -9.9 °C 33822.8 hPa ENE 32.8 km/h 32.8 km/h 55 % 0 mm
16:51 -4.7 °C -9.9 °C 33822.8 hPa ESE 26.9 km/h 26.9 km/h 56 % 0 mm
16:56 -4.8 °C -9.9 °C 33822.8 hPa ESE 25.1 km/h 25.1 km/h 56 % 0 mm
17:01 -4.8 °C -9.9 °C 33822.8 hPa ESE 32.8 km/h 32.8 km/h 56 % 0 mm
17:06 -4.7 °C -9.9 °C 33822.8 hPa ESE 26.9 km/h 26.9 km/h 56 % 0 mm
17:11 -4.7 °C -9.7 °C 33822.8 hPa SSW 17.9 km/h 17.9 km/h 57 % 0 mm
17:16 -4.6 °C -9.8 °C 33822.8 hPa South 15 km/h 15 km/h 56 % 0 mm
17:21 -4.6 °C -9.7 °C 33822.8 hPa SSE 15 km/h 15.3 km/h 56 % 0 mm
17:26 -4.6 °C -9.7 °C 33822.8 hPa ESE 17.9 km/h 17.9 km/h 56 % 0 mm
17:31 -4.4 °C -9.8 °C 33822.8 hPa East 15 km/h 15 km/h 55 % 0 mm
17:36 -4.3 °C -9.7 °C 33822.8 hPa ESE 9 km/h 9 km/h 55 % 0 mm
17:41 -4.2 °C -9.5 °C 33822.8 hPa NNW 11.9 km/h 11.9 km/h 55 % 0 mm
17:46 -4.1 °C -9.6 °C 33822.8 hPa SSW 12.2 km/h 12.2 km/h 54 % 0 mm
17:51 -4.2 °C -9.7 °C 33822.8 hPa South 17.9 km/h 17.9 km/h 54 % 0 mm
17:56 -4.3 °C -9.8 °C 33822.8 hPa South 15.3 km/h 15.3 km/h 54 % 0 mm
18:01 -4.4 °C -9.9 °C 33788.9 hPa NNE 23.8 km/h 23.8 km/h 54 % 0 mm
18:06 -4.6 °C -9.7 °C 33788.9 hPa ENE 20.9 km/h 20.9 km/h 56 % 0 mm
18:11 -4.7 °C -9.8 °C 33788.9 hPa SSE 17.9 km/h 17.9 km/h 56 % 0 mm
18:16 -4.7 °C -9.8 °C 33788.9 hPa ENE 17.9 km/h 17.9 km/h 56 % 0 mm
18:21 -4.6 °C -9.8 °C 33788.9 hPa SSE 17.9 km/h 17.9 km/h 56 % 0 mm
18:26 -4.7 °C -9.9 °C 33788.9 hPa SE 9 km/h 12.7 km/h 56 % 0 mm
18:31 -4.7 °C -9.7 °C 33788.9 hPa ESE 15 km/h 15 km/h 57 % 0 mm
18:36 -4.8 °C -9.8 °C 33788.9 hPa ESE 15 km/h 15 km/h 57 % 0 mm
18:41 -4.9 °C -9.9 °C 33788.9 hPa East 9.8 km/h 12.2 km/h 57 % 0 mm
18:46 -4.9 °C -9.8 °C 33788.9 hPa East 23.8 km/h 23.8 km/h 58 % 0 mm
18:51 -5.1 °C -9.8 °C 33788.9 hPa ESE 15 km/h 15 km/h 59 % 0 mm
18:56 -5.1 °C -9.8 °C 33788.9 hPa ESE 11.9 km/h 11.9 km/h 59 % 0 mm
19:01 -5.1 °C -9.8 °C 33788.9 hPa ESE 15 km/h 15 km/h 59 % 0 mm
19:06 -5.1 °C -9.8 °C 33788.9 hPa ESE 11.9 km/h 11.9 km/h 59 % 0 mm
19:11 -5.2 °C -9.8 °C 33788.9 hPa East 15 km/h 15 km/h 59 % 0 mm
19:15 -7.6 °C -11.2 °C 33856.6 hPa East 7.7 km/h 15.6 km/h 66 % 0 mm
19:16 -5.2 °C -9.8 °C 33788.9 hPa ENE 4.2 km/h 6.8 km/h 59 % 0 mm
19:21 -5.2 °C -9.8 °C 33788.9 hPa NE 6 km/h 6 km/h 59 % 0 mm
19:25 -7.7 °C -11.2 °C 33856.6 hPa ESE 7.7 km/h 15.6 km/h 67 % 0 mm
19:26 -5.2 °C -9.8 °C 33788.9 hPa NNE 6 km/h 6 km/h 59 % 0 mm
19:31 -5.2 °C -9.8 °C 33822.8 hPa East 6 km/h 6.3 km/h 59 % 0 mm
19:35 -7.7 °C -10.9 °C 33924.3 hPa ESE 7.7 km/h 15.6 km/h 69 % 0 mm
19:36 -5.2 °C -9.7 °C 33822.8 hPa ENE 11.9 km/h 11.9 km/h 60 % 0 mm
19:41 -5.2 °C -9.7 °C 33822.8 hPa NNE 6.3 km/h 6.3 km/h 60 % 0 mm
19:45 -8.6 °C -10.7 °C 33924.3 hPa ESE 7.7 km/h 15.6 km/h 78 % 0 mm
19:51 -5.2 °C -9.8 °C 33788.9 hPa ENE 12.2 km/h 12.2 km/h 60 % 0 mm
19:55 -8.7 °C -10.9 °C 33924.3 hPa ESE 7.7 km/h 15.6 km/h 77 % 0 mm
19:56 -5.3 °C -9.8 °C 33788.9 hPa East 15 km/h 15 km/h 60 % 0 mm
20:01 -5.4 °C -9.8 °C 33788.9 hPa East 15 km/h 15 km/h 61 % 0 mm
20:05 -8.7 °C -10.6 °C 33890.5 hPa ESE 7.7 km/h 15.6 km/h 80 % 0 mm
20:06 -5.4 °C -9.9 °C 33788.9 hPa East 6.8 km/h 8.5 km/h 60 % 0 mm
20:11 -5.4 °C -9.8 °C 33788.9 hPa East 12.7 km/h 12.7 km/h 61 % 0 mm
20:15 -8.8 °C -10.7 °C 33890.5 hPa ESE 7.7 km/h 15.6 km/h 80 % 0 mm
20:16 -5.5 °C -9.9 °C 33788.9 hPa East 12.7 km/h 12.7 km/h 61 % 0 mm
20:21 -5.6 °C -9.9 °C 33788.9 hPa East 12.7 km/h 12.7 km/h 61 % 0 mm
20:25 -8.8 °C -10.7 °C 33890.5 hPa ESE 7.7 km/h 15.6 km/h 80 % 0 mm
20:26 -5.6 °C -9.9 °C 33788.9 hPa East 12.7 km/h 12.7 km/h 61 % 0 mm
20:31 -5.6 °C -9.8 °C 33788.9 hPa East 12.7 km/h 12.7 km/h 62 % 0 mm
20:35 -8.8 °C -10.5 °C 33890.5 hPa ESE 7.7 km/h 15.6 km/h 82 % 0 mm
20:36 -5.7 °C -9.8 °C 33788.9 hPa East 12.7 km/h 12.7 km/h 63 % 0 mm
20:41 -5.7 °C -10.1 °C 33788.9 hPa East 12.7 km/h 12.7 km/h 61 % 0 mm
20:45 -8.8 °C -10.4 °C 33924.3 hPa ESE 7.7 km/h 15.6 km/h 83 % 0 mm
20:46 -5.8 °C -10.3 °C 33822.8 hPa East 12.7 km/h 12.7 km/h 60 % 0 mm
20:51 -5.8 °C -10.2 °C 33822.8 hPa East 12.7 km/h 12.7 km/h 61 % 0 mm
20:55 -8.8 °C -10.4 °C 33924.3 hPa ESE 7.7 km/h 15.6 km/h 83 % 0 mm
20:56 -5.9 °C -10.2 °C 33822.8 hPa East 12.7 km/h 12.7 km/h 61 % 0 mm
21:01 -5.9 °C -10.7 °C 33822.8 hPa East 12.7 km/h 12.7 km/h 58 % 0 mm
21:05 -8.9 °C -10.7 °C 33890.5 hPa ESE 7.7 km/h 15.6 km/h 82 % 0 mm
21:06 -6 °C -11.1 °C 33822.8 hPa East 12.7 km/h 12.7 km/h 56 % 0 mm
21:11 -6 °C -11.1 °C 33822.8 hPa East 12.7 km/h 12.7 km/h 56 % 0 mm
21:16 -6.1 °C -11.1 °C 33822.8 hPa East 12.7 km/h 12.7 km/h 56 % 0 mm
21:21 -6.1 °C -10.7 °C 33822.8 hPa East 12.7 km/h 12.7 km/h 59 % 0 mm
21:25 -9.1 °C -11.1 °C 33890.5 hPa ESE 7.7 km/h 15.6 km/h 79 % 0 mm
21:26 -6.1 °C -10.2 °C 33822.8 hPa East 12.7 km/h 12.7 km/h 62 % 0 mm
21:31 -6.1 °C -10.4 °C 33856.6 hPa East 12.7 km/h 12.7 km/h 61 % 0 mm
21:35 -9 °C -11.2 °C 33890.5 hPa ESE 7.7 km/h 15.6 km/h 77 % 0 mm
21:36 -6.1 °C -10.9 °C 33856.6 hPa East 12.7 km/h 12.7 km/h 58 % 0 mm
21:41 -6.1 °C -10.9 °C 33856.6 hPa East 12.7 km/h 12.7 km/h 58 % 0 mm
21:45 -9 °C -11.7 °C 33890.5 hPa ESE 7.7 km/h 15.6 km/h 73 % 0 mm
21:51 -6.2 °C -10.3 °C 33856.6 hPa East 12.7 km/h 12.7 km/h 63 % 0 mm
21:55 -9.1 °C -11.8 °C 33890.5 hPa ESE 7.7 km/h 15.6 km/h 73 % 0 mm
21:56 -6.2 °C -10.2 °C 33856.6 hPa East 12.7 km/h 12.7 km/h 64 % 0 mm
22:01 -6.3 °C -9.9 °C 33856.6 hPa East 12.7 km/h 12.7 km/h 66 % 0 mm
22:05 -9.2 °C -11.9 °C 33890.5 hPa ESE 7.7 km/h 15.6 km/h 73 % 0 mm
22:06 -6.3 °C -9.8 °C 33856.6 hPa East 12.7 km/h 12.7 km/h 67 % 0 mm
22:11 -6.4 °C -10.7 °C 33856.6 hPa ENE 7.6 km/h 7.6 km/h 61 % 0 mm
22:15 -9.3 °C -12.1 °C 33856.6 hPa ESE 7.7 km/h 15.6 km/h 72 % 0 mm
22:17 -6.4 °C -10.9 °C 33856.6 hPa ENE 7.6 km/h 7.6 km/h 60 % 0 mm
22:22 -6.4 °C -11.1 °C 33856.6 hPa ENE 7.6 km/h 7.6 km/h 59 % 0 mm
22:25 -9.2 °C -12.3 °C 33856.6 hPa ESE 7.7 km/h 15.6 km/h 69 % 0 mm
22:27 -6.4 °C -11.2 °C 33856.6 hPa ENE 7.6 km/h 7.6 km/h 58 % 0 mm
22:32 -6.5 °C -11.2 °C 33890.5 hPa ENE 7.6 km/h 7.6 km/h 58 % 0 mm
22:35 -9.3 °C -12.3 °C 33890.5 hPa ESE 7.7 km/h 15.6 km/h 70 % 0 mm
22:37 -6.5 °C -11.2 °C 33890.5 hPa ENE 7.6 km/h 7.6 km/h 58 % 0 mm
22:42 -6.6 °C -11.3 °C 33890.5 hPa ENE 7.6 km/h 7.6 km/h 58 % 0 mm
22:45 -9.3 °C -12.4 °C 33856.6 hPa ESE 7.7 km/h 15.6 km/h 69 % 0 mm
22:47 -6.6 °C -11.3 °C 33890.5 hPa ENE 7.6 km/h 7.6 km/h 58 % 0 mm
22:52 -6.6 °C -11.5 °C 33890.5 hPa ENE 7.6 km/h 7.6 km/h 57 % 0 mm
22:55 -9.2 °C -12.6 °C 33856.6 hPa ESE 7.7 km/h 15.6 km/h 67 % 0 mm
22:57 -6.7 °C -11.6 °C 33890.5 hPa ENE 7.6 km/h 7.6 km/h 57 % 0 mm
23:02 -6.7 °C -11.3 °C 33856.6 hPa ENE 7.6 km/h 7.6 km/h 59 % 0 mm
23:05 -9.2 °C -12.7 °C 33856.6 hPa ESE 7.7 km/h 15.6 km/h 66 % 0 mm
23:07 -6.8 °C -11.4 °C 33856.6 hPa ENE 7.6 km/h 7.6 km/h 59 % 0 mm
23:12 -6.8 °C -11.4 °C 33856.6 hPa ENE 7.6 km/h 7.6 km/h 59 % 0 mm
23:15 -9.1 °C -12.7 °C 33890.5 hPa ESE 7.7 km/h 15.6 km/h 65 % 0 mm
23:17 -6.9 °C -11.3 °C 33890.5 hPa ENE 7.6 km/h 7.6 km/h 60 % 0 mm
23:22 -7 °C -11.4 °C 33890.5 hPa ENE 7.6 km/h 7.6 km/h 60 % 0 mm
23:25 -9.1 °C -12.7 °C 33890.5 hPa ESE 7.7 km/h 15.6 km/h 65 % 0 mm
23:27 -7 °C -11.4 °C 33890.5 hPa ENE 7.6 km/h 7.6 km/h 60 % 0 mm
23:32 -7.1 °C -11.6 °C 33856.6 hPa ENE 7.6 km/h 7.6 km/h 60 % 0 mm
23:35 -9 °C -12.7 °C 33856.6 hPa ESE 7.7 km/h 15.6 km/h 65 % 0 mm
23:37 -7.2 °C -11.4 °C 33856.6 hPa ENE 7.6 km/h 7.6 km/h 61 % 0 mm
23:42 -7.2 °C -11.5 °C 33856.6 hPa ENE 7.6 km/h 7.6 km/h 61 % 0 mm
23:45 -9.1 °C -12.7 °C 33890.5 hPa ESE 7.7 km/h 15.6 km/h 65 % 0 mm
23:47 -7.2 °C -11.5 °C 33856.6 hPa ENE 7.6 km/h 7.6 km/h 61 % 0 mm
23:52 -7.3 °C -11.4 °C 33856.6 hPa ENE 7.6 km/h 7.6 km/h 62 % 0 mm
23:55 -9.2 °C -12.7 °C 33890.5 hPa ESE 7.7 km/h 15.6 km/h 66 % 0 mm
23:57 -7.3 °C -11.4 °C 33856.6 hPa ENE 7.6 km/h 7.6 km/h 62 % 0 mm
Meteo Sesrovires
Elogis d' Weather Underground - 4 mb

Guio original per  Jim McMurry - jmcmurry@mwt.net Adaptat per a la plantilla per  Wim van der Kuil - Leuven-Template.eu

Trobareu la nostra informacio del temps tambe a:

Weather Underground

AWEKAS